sensor_id;sensor_type;location;lat;lon;timestamp;temperature;humidity
62991;DHT22;49084;48.204;16.202;2022-10-16T00:01:15;12.60;99.90
62991;DHT22;49084;48.204;16.202;2022-10-16T00:03:42;12.70;99.90
62991;DHT22;49084;48.204;16.202;2022-10-16T00:06:09;12.70;99.90
62991;DHT22;49084;48.204;16.202;2022-10-16T00:08:36;12.60;99.90
62991;DHT22;49084;48.204;16.202;2022-10-16T00:11:07;12.60;99.90
62991;DHT22;49084;48.204;16.202;2022-10-16T00:13:34;12.50;99.90
62991;DHT22;49084;48.204;16.202;2022-10-16T00:16:01;12.60;99.90
62991;DHT22;49084;48.204;16.202;2022-10-16T00:18:28;12.50;99.90
62991;DHT22;49084;48.204;16.202;2022-10-16T00:20:54;12.60;99.90
62991;DHT22;49084;48.204;16.202;2022-10-16T00:23:20;12.60;99.90
62991;DHT22;49084;48.204;16.202;2022-10-16T00:25:55;12.50;99.90
62991;DHT22;49084;48.204;16.202;2022-10-16T00:28:21;12.50;99.90
62991;DHT22;49084;48.204;16.202;2022-10-16T00:30:46;12.50;99.90
62991;DHT22;49084;48.204;16.202;2022-10-16T00:33:12;12.50;99.90
62991;DHT22;49084;48.204;16.202;2022-10-16T00:35:38;12.50;99.90
62991;DHT22;49084;48.204;16.202;2022-10-16T00:38:03;12.50;99.90
62991;DHT22;49084;48.204;16.202;2022-10-16T00:40:29;12.50;99.90
62991;DHT22;49084;48.204;16.202;2022-10-16T00:42:54;12.50;99.90
62991;DHT22;49084;48.204;16.202;2022-10-16T00:45:20;12.50;99.90
62991;DHT22;49084;48.204;16.202;2022-10-16T00:47:47;12.50;99.90
62991;DHT22;49084;48.204;16.202;2022-10-16T00:50:27;12.50;99.90
62991;DHT22;49084;48.204;16.202;2022-10-16T00:52:53;12.50;99.90
62991;DHT22;49084;48.204;16.202;2022-10-16T00:55:20;12.50;99.90
62991;DHT22;49084;48.204;16.202;2022-10-16T00:57:46;12.50;99.90
62991;DHT22;49084;48.204;16.202;2022-10-16T01:00:16;12.40;99.90
62991;DHT22;49084;48.204;16.202;2022-10-16T01:02:42;12.40;99.90
62991;DHT22;49084;48.204;16.202;2022-10-16T01:05:08;12.50;99.90
62991;DHT22;49084;48.204;16.202;2022-10-16T01:10:40;12.40;99.90
62991;DHT22;49084;48.204;16.202;2022-10-16T01:13:36;12.40;99.90
62991;DHT22;49084;48.204;16.202;2022-10-16T01:16:43;12.40;99.90
62991;DHT22;49084;48.204;16.202;2022-10-16T01:19:19;12.50;99.90
62991;DHT22;49084;48.204;16.202;2022-10-16T01:21:48;12.50;99.90
62991;DHT22;49084;48.204;16.202;2022-10-16T01:24:41;12.40;99.90
62991;DHT22;49084;48.204;16.202;2022-10-16T01:27:27;12.40;99.90
62991;DHT22;49084;48.204;16.202;2022-10-16T01:30:02;12.50;99.90
62991;DHT22;49084;48.204;16.202;2022-10-16T01:32:36;12.50;99.90
62991;DHT22;49084;48.204;16.202;2022-10-16T01:35:11;12.50;99.90
62991;DHT22;49084;48.204;16.202;2022-10-16T01:38:16;12.40;99.90
62991;DHT22;49084;48.204;16.202;2022-10-16T01:40:48;12.40;99.90
62991;DHT22;49084;48.204;16.202;2022-10-16T01:43:42;12.40;99.90
62991;DHT22;49084;48.204;16.202;2022-10-16T01:46:07;12.50;99.90
62991;DHT22;49084;48.204;16.202;2022-10-16T01:48:34;12.40;99.90
62991;DHT22;49084;48.204;16.202;2022-10-16T01:51:07;12.50;99.90
62991;DHT22;49084;48.204;16.202;2022-10-16T01:53:34;12.40;99.90
62991;DHT22;49084;48.204;16.202;2022-10-16T01:56:02;12.40;99.90
62991;DHT22;49084;48.204;16.202;2022-10-16T01:58:30;12.40;99.90
62991;DHT22;49084;48.204;16.202;2022-10-16T02:01:00;12.40;99.90
62991;DHT22;49084;48.204;16.202;2022-10-16T02:03:27;12.50;99.90
62991;DHT22;49084;48.204;16.202;2022-10-16T02:05:55;12.50;99.90
62991;DHT22;49084;48.204;16.202;2022-10-16T02:08:24;12.40;99.90
62991;DHT22;49084;48.204;16.202;2022-10-16T02:10:51;12.40;99.90
62991;DHT22;49084;48.204;16.202;2022-10-16T02:13:32;12.50;99.90
62991;DHT22;49084;48.204;16.202;2022-10-16T02:15:59;12.50;99.90
62991;DHT22;49084;48.204;16.202;2022-10-16T02:18:26;12.40;99.90
62991;DHT22;49084;48.204;16.202;2022-10-16T02:27:11;12.50;99.90
62991;DHT22;49084;48.204;16.202;2022-10-16T02:29:41;12.50;99.90
62991;DHT22;49084;48.204;16.202;2022-10-16T02:32:12;12.50;99.90
62991;DHT22;49084;48.204;16.202;2022-10-16T02:34:41;12.50;99.90
62991;DHT22;49084;48.204;16.202;2022-10-16T02:37:07;12.50;99.90
62991;DHT22;49084;48.204;16.202;2022-10-16T02:39:34;12.50;99.90
62991;DHT22;49084;48.204;16.202;2022-10-16T02:42:00;12.40;99.90
62991;DHT22;49084;48.204;16.202;2022-10-16T02:44:25;12.40;99.90
62991;DHT22;49084;48.204;16.202;2022-10-16T02:46:51;12.40;99.90
62991;DHT22;49084;48.204;16.202;2022-10-16T02:49:17;12.40;99.90
62991;DHT22;49084;48.204;16.202;2022-10-16T02:51:43;12.40;99.90
62991;DHT22;49084;48.204;16.202;2022-10-16T02:54:09;12.40;99.90
62991;DHT22;49084;48.204;16.202;2022-10-16T02:56:34;12.30;99.90
62991;DHT22;49084;48.204;16.202;2022-10-16T02:59:00;12.30;99.90
62991;DHT22;49084;48.204;16.202;2022-10-16T03:01:25;12.30;99.90
62991;DHT22;49084;48.204;16.202;2022-10-16T03:03:51;12.30;99.90
62991;DHT22;49084;48.204;16.202;2022-10-16T03:06:17;12.30;99.90
62991;DHT22;49084;48.204;16.202;2022-10-16T03:08:42;12.20;99.90
62991;DHT22;49084;48.204;16.202;2022-10-16T03:11:08;12.20;99.90
62991;DHT22;49084;48.204;16.202;2022-10-16T03:13:34;12.20;99.90
62991;DHT22;49084;48.204;16.202;2022-10-16T03:15:59;12.20;99.90
62991;DHT22;49084;48.204;16.202;2022-10-16T03:18:25;12.20;99.90
62991;DHT22;49084;48.204;16.202;2022-10-16T03:20:51;12.20;99.90
62991;DHT22;49084;48.204;16.202;2022-10-16T03:23:16;12.20;99.90
62991;DHT22;49084;48.204;16.202;2022-10-16T03:25:42;12.20;99.90
62991;DHT22;49084;48.204;16.202;2022-10-16T03:28:07;12.20;99.90
62991;DHT22;49084;48.204;16.202;2022-10-16T03:30:33;12.20;99.90
62991;DHT22;49084;48.204;16.202;2022-10-16T03:32:59;12.20;99.90
62991;DHT22;49084;48.204;16.202;2022-10-16T03:35:25;12.20;99.90
62991;DHT22;49084;48.204;16.202;2022-10-16T03:37:51;12.20;99.90
62991;DHT22;49084;48.204;16.202;2022-10-16T03:40:17;12.20;99.90
62991;DHT22;49084;48.204;16.202;2022-10-16T03:42:43;12.20;99.90
62991;DHT22;49084;48.204;16.202;2022-10-16T03:45:09;12.20;99.90
62991;DHT22;49084;48.204;16.202;2022-10-16T03:47:35;12.20;99.90
62991;DHT22;49084;48.204;16.202;2022-10-16T03:50:02;12.10;99.90
62991;DHT22;49084;48.204;16.202;2022-10-16T03:52:27;12.20;99.90
62991;DHT22;49084;48.204;16.202;2022-10-16T03:54:53;12.10;99.90
62991;DHT22;49084;48.204;16.202;2022-10-16T03:57:19;12.20;99.90
62991;DHT22;49084;48.204;16.202;2022-10-16T03:59:46;12.20;99.90
62991;DHT22;49084;48.204;16.202;2022-10-16T04:02:11;12.20;99.90
62991;DHT22;49084;48.204;16.202;2022-10-16T04:04:37;12.20;99.90
62991;DHT22;49084;48.204;16.202;2022-10-16T04:07:03;12.20;99.90
62991;DHT22;49084;48.204;16.202;2022-10-16T04:09:28;12.20;99.90
62991;DHT22;49084;48.204;16.202;2022-10-16T04:11:54;12.20;99.90
62991;DHT22;49084;48.204;16.202;2022-10-16T04:14:20;12.20;99.90
62991;DHT22;49084;48.204;16.202;2022-10-16T04:16:45;12.20;99.90
62991;DHT22;49084;48.204;16.202;2022-10-16T04:19:11;12.20;99.90
62991;DHT22;49084;48.204;16.202;2022-10-16T04:21:37;12.20;99.90
62991;DHT22;49084;48.204;16.202;2022-10-16T04:24:03;12.20;99.90
62991;DHT22;49084;48.204;16.202;2022-10-16T04:26:29;12.20;99.90
62991;DHT22;49084;48.204;16.202;2022-10-16T04:28:55;12.10;99.90
62991;DHT22;49084;48.204;16.202;2022-10-16T04:31:21;12.00;99.90
62991;DHT22;49084;48.204;16.202;2022-10-16T04:33:47;12.10;99.90
62991;DHT22;49084;48.204;16.202;2022-10-16T04:36:13;12.10;99.90
62991;DHT22;49084;48.204;16.202;2022-10-16T04:38:39;12.10;99.90
62991;DHT22;49084;48.204;16.202;2022-10-16T04:41:06;12.10;99.90
62991;DHT22;49084;48.204;16.202;2022-10-16T04:43:33;12.10;99.90
62991;DHT22;49084;48.204;16.202;2022-10-16T04:45:59;12.00;99.90
62991;DHT22;49084;48.204;16.202;2022-10-16T04:48:24;12.00;99.90
62991;DHT22;49084;48.204;16.202;2022-10-16T04:50:50;12.00;99.90
62991;DHT22;49084;48.204;16.202;2022-10-16T04:53:15;12.00;99.90
62991;DHT22;49084;48.204;16.202;2022-10-16T04:55:41;12.00;99.90
62991;DHT22;49084;48.204;16.202;2022-10-16T04:58:07;12.00;99.90
62991;DHT22;49084;48.204;16.202;2022-10-16T05:00:34;12.00;99.90
62991;DHT22;49084;48.204;16.202;2022-10-16T05:02:59;11.90;99.90
62991;DHT22;49084;48.204;16.202;2022-10-16T05:05:27;11.90;99.90
62991;DHT22;49084;48.204;16.202;2022-10-16T05:07:53;11.90;99.90
62991;DHT22;49084;48.204;16.202;2022-10-16T05:10:19;11.80;99.90
62991;DHT22;49084;48.204;16.202;2022-10-16T05:12:46;11.90;99.90
62991;DHT22;49084;48.204;16.202;2022-10-16T05:15:11;11.90;99.90
62991;DHT22;49084;48.204;16.202;2022-10-16T05:17:37;11.90;99.90
62991;DHT22;49084;48.204;16.202;2022-10-16T05:20:04;11.90;99.90
62991;DHT22;49084;48.204;16.202;2022-10-16T05:22:30;11.90;99.90
62991;DHT22;49084;48.204;16.202;2022-10-16T05:24:55;11.80;99.90
62991;DHT22;49084;48.204;16.202;2022-10-16T05:27:21;11.90;99.90
62991;DHT22;49084;48.204;16.202;2022-10-16T05:29:48;11.80;99.90
62991;DHT22;49084;48.204;16.202;2022-10-16T05:32:18;11.90;99.90
62991;DHT22;49084;48.204;16.202;2022-10-16T05:34:44;11.80;99.90
62991;DHT22;49084;48.204;16.202;2022-10-16T05:37:10;11.80;99.90
62991;DHT22;49084;48.204;16.202;2022-10-16T05:39:37;11.80;99.90
62991;DHT22;49084;48.204;16.202;2022-10-16T05:42:03;11.70;99.90
62991;DHT22;49084;48.204;16.202;2022-10-16T05:44:29;11.60;99.90
62991;DHT22;49084;48.204;16.202;2022-10-16T05:46:54;11.60;99.90
62991;DHT22;49084;48.204;16.202;2022-10-16T05:49:20;11.60;99.90
62991;DHT22;49084;48.204;16.202;2022-10-16T05:51:46;11.60;99.90
62991;DHT22;49084;48.204;16.202;2022-10-16T05:54:11;11.60;99.90
62991;DHT22;49084;48.204;16.202;2022-10-16T05:56:37;11.60;99.90
62991;DHT22;49084;48.204;16.202;2022-10-16T05:59:04;11.60;99.90
62991;DHT22;49084;48.204;16.202;2022-10-16T06:01:30;11.60;99.90
62991;DHT22;49084;48.204;16.202;2022-10-16T06:03:56;11.70;99.90
62991;DHT22;49084;48.204;16.202;2022-10-16T06:06:25;11.70;99.90
62991;DHT22;49084;48.204;16.202;2022-10-16T06:08:52;11.70;99.90
62991;DHT22;49084;48.204;16.202;2022-10-16T06:11:24;11.70;99.90
62991;DHT22;49084;48.204;16.202;2022-10-16T06:13:52;11.70;99.90
62991;DHT22;49084;48.204;16.202;2022-10-16T06:16:18;11.80;99.90
62991;DHT22;49084;48.204;16.202;2022-10-16T06:18:45;11.80;99.90
62991;DHT22;49084;48.204;16.202;2022-10-16T06:21:23;11.80;99.90
62991;DHT22;49084;48.204;16.202;2022-10-16T06:23:50;11.90;99.90
62991;DHT22;49084;48.204;16.202;2022-10-16T06:26:19;11.80;99.90
62991;DHT22;49084;48.204;16.202;2022-10-16T06:28:45;11.80;99.90
62991;DHT22;49084;48.204;16.202;2022-10-16T06:31:12;11.80;99.90
62991;DHT22;49084;48.204;16.202;2022-10-16T06:33:39;11.80;99.90
62991;DHT22;49084;48.204;16.202;2022-10-16T06:38:32;11.80;99.90
62991;DHT22;49084;48.204;16.202;2022-10-16T06:40:58;11.90;99.90
62991;DHT22;49084;48.204;16.202;2022-10-16T06:43:24;11.90;99.90
62991;DHT22;49084;48.204;16.202;2022-10-16T06:45:54;11.90;99.90
62991;DHT22;49084;48.204;16.202;2022-10-16T06:48:20;11.90;99.90
62991;DHT22;49084;48.204;16.202;2022-10-16T06:53:30;11.90;99.90
62991;DHT22;49084;48.204;16.202;2022-10-16T06:55:56;11.90;99.90
62991;DHT22;49084;48.204;16.202;2022-10-16T06:58:22;11.90;99.90
62991;DHT22;49084;48.204;16.202;2022-10-16T07:00:48;12.00;99.90
62991;DHT22;49084;48.204;16.202;2022-10-16T07:03:15;12.00;99.90
62991;DHT22;49084;48.204;16.202;2022-10-16T07:05:44;12.00;99.90
62991;DHT22;49084;48.204;16.202;2022-10-16T07:08:09;12.10;99.90
62991;DHT22;49084;48.204;16.202;2022-10-16T07:10:35;12.10;99.90
62991;DHT22;49084;48.204;16.202;2022-10-16T07:13:01;12.20;99.90
62991;DHT22;49084;48.204;16.202;2022-10-16T07:15:27;12.30;99.90
62991;DHT22;49084;48.204;16.202;2022-10-16T07:17:53;12.30;99.90
62991;DHT22;49084;48.204;16.202;2022-10-16T07:20:20;12.40;99.90
62991;DHT22;49084;48.204;16.202;2022-10-16T07:22:45;12.50;99.90
62991;DHT22;49084;48.204;16.202;2022-10-16T07:25:11;12.50;99.90
62991;DHT22;49084;48.204;16.202;2022-10-16T07:27:37;12.60;99.90
62991;DHT22;49084;48.204;16.202;2022-10-16T07:30:03;12.60;99.90
62991;DHT22;49084;48.204;16.202;2022-10-16T07:32:29;12.50;99.90
62991;DHT22;49084;48.204;16.202;2022-10-16T07:34:55;12.50;99.90
62991;DHT22;49084;48.204;16.202;2022-10-16T07:37:21;12.50;99.90
62991;DHT22;49084;48.204;16.202;2022-10-16T07:39:47;12.40;99.90
62991;DHT22;49084;48.204;16.202;2022-10-16T07:42:12;12.30;99.90
62991;DHT22;49084;48.204;16.202;2022-10-16T07:44:38;12.30;99.90
62991;DHT22;49084;48.204;16.202;2022-10-16T07:47:05;12.30;99.90
62991;DHT22;49084;48.204;16.202;2022-10-16T07:49:31;12.30;99.90
62991;DHT22;49084;48.204;16.202;2022-10-16T07:51:57;12.40;99.90
62991;DHT22;49084;48.204;16.202;2022-10-16T07:54:22;12.30;99.90
62991;DHT22;49084;48.204;16.202;2022-10-16T07:56:48;12.30;99.90
62991;DHT22;49084;48.204;16.202;2022-10-16T07:59:14;12.30;99.90
62991;DHT22;49084;48.204;16.202;2022-10-16T08:01:39;12.30;99.90
62991;DHT22;49084;48.204;16.202;2022-10-16T08:04:05;12.30;99.90
62991;DHT22;49084;48.204;16.202;2022-10-16T08:06:36;12.40;99.90
62991;DHT22;49084;48.204;16.202;2022-10-16T08:09:03;12.40;99.90
62991;DHT22;49084;48.204;16.202;2022-10-16T08:11:29;12.50;99.90
62991;DHT22;49084;48.204;16.202;2022-10-16T08:13:55;12.40;99.90
62991;DHT22;49084;48.204;16.202;2022-10-16T08:16:21;12.50;99.90
62991;DHT22;49084;48.204;16.202;2022-10-16T08:18:46;12.50;99.90
62991;DHT22;49084;48.204;16.202;2022-10-16T08:21:18;12.60;99.90
62991;DHT22;49084;48.204;16.202;2022-10-16T08:23:44;12.70;99.90
62991;DHT22;49084;48.204;16.202;2022-10-16T08:26:11;12.80;99.90
62991;DHT22;49084;48.204;16.202;2022-10-16T08:28:37;12.70;99.90
62991;DHT22;49084;48.204;16.202;2022-10-16T08:31:07;12.70;99.90
62991;DHT22;49084;48.204;16.202;2022-10-16T08:33:33;12.60;99.90
62991;DHT22;49084;48.204;16.202;2022-10-16T08:36:01;12.70;99.90
62991;DHT22;49084;48.204;16.202;2022-10-16T08:38:27;12.70;99.90
62991;DHT22;49084;48.204;16.202;2022-10-16T08:46:43;12.80;99.90
62991;DHT22;49084;48.204;16.202;2022-10-16T08:49:13;12.80;99.90
62991;DHT22;49084;48.204;16.202;2022-10-16T08:51:40;12.80;99.90
62991;DHT22;49084;48.204;16.202;2022-10-16T08:56:57;13.00;99.90
62991;DHT22;49084;48.204;16.202;2022-10-16T08:59:26;13.10;99.90
62991;DHT22;49084;48.204;16.202;2022-10-16T09:01:52;13.10;99.90
62991;DHT22;49084;48.204;16.202;2022-10-16T09:23:19;13.40;99.90
62991;DHT22;49084;48.204;16.202;2022-10-16T09:25:47;13.40;99.90
62991;DHT22;49084;48.204;16.202;2022-10-16T09:28:14;13.40;99.90
62991;DHT22;49084;48.204;16.202;2022-10-16T09:30:40;13.40;99.90
62991;DHT22;49084;48.204;16.202;2022-10-16T09:33:06;13.40;99.90
62991;DHT22;49084;48.204;16.202;2022-10-16T09:35:43;13.40;99.90
62991;DHT22;49084;48.204;16.202;2022-10-16T09:38:20;13.40;99.90
62991;DHT22;49084;48.204;16.202;2022-10-16T09:40:46;13.50;99.90
62991;DHT22;49084;48.204;16.202;2022-10-16T09:45:54;13.40;99.90
62991;DHT22;49084;48.204;16.202;2022-10-16T09:48:21;13.40;99.90
62991;DHT22;49084;48.204;16.202;2022-10-16T09:50:59;13.50;99.90
62991;DHT22;49084;48.204;16.202;2022-10-16T09:53:43;13.60;99.90
62991;DHT22;49084;48.204;16.202;2022-10-16T09:56:32;13.70;99.90
62991;DHT22;49084;48.204;16.202;2022-10-16T09:59:00;13.80;99.90
62991;DHT22;49084;48.204;16.202;2022-10-16T10:01:50;13.90;99.90
62991;DHT22;49084;48.204;16.202;2022-10-16T10:04:17;14.00;99.90
62991;DHT22;49084;48.204;16.202;2022-10-16T10:06:54;14.00;99.90
62991;DHT22;49084;48.204;16.202;2022-10-16T10:09:38;14.10;99.90
62991;DHT22;49084;48.204;16.202;2022-10-16T10:12:05;14.20;99.90
62991;DHT22;49084;48.204;16.202;2022-10-16T10:14:47;14.20;99.90
62991;DHT22;49084;48.204;16.202;2022-10-16T10:17:27;14.30;99.90
62991;DHT22;49084;48.204;16.202;2022-10-16T10:22:43;14.20;99.90
62991;DHT22;49084;48.204;16.202;2022-10-16T10:27:43;14.00;99.90
62991;DHT22;49084;48.204;16.202;2022-10-16T10:30:20;14.10;99.90
62991;DHT22;49084;48.204;16.202;2022-10-16T10:38:27;14.10;99.90
62991;DHT22;49084;48.204;16.202;2022-10-16T10:41:09;14.00;99.90
62991;DHT22;49084;48.204;16.202;2022-10-16T10:52:47;14.30;99.90
62991;DHT22;49084;48.204;16.202;2022-10-16T10:55:45;14.20;99.90
62991;DHT22;49084;48.204;16.202;2022-10-16T11:06:32;14.20;99.90
62991;DHT22;49084;48.204;16.202;2022-10-16T11:09:06;14.10;99.90
62991;DHT22;49084;48.204;16.202;2022-10-16T11:15:02;14.30;99.90
62991;DHT22;49084;48.204;16.202;2022-10-16T11:17:38;14.20;99.90
62991;DHT22;49084;48.204;16.202;2022-10-16T11:20:21;14.20;99.90
62991;DHT22;49084;48.204;16.202;2022-10-16T11:23:00;14.20;99.90
62991;DHT22;49084;48.204;16.202;2022-10-16T11:25:29;14.30;99.90
62991;DHT22;49084;48.204;16.202;2022-10-16T11:30:41;14.40;99.90
62991;DHT22;49084;48.204;16.202;2022-10-16T11:35:38;14.50;99.90
62991;DHT22;49084;48.204;16.202;2022-10-16T11:38:34;14.60;99.90
62991;DHT22;49084;48.204;16.202;2022-10-16T11:41:18;14.60;99.90
62991;DHT22;49084;48.204;16.202;2022-10-16T11:46:36;14.60;99.90
62991;DHT22;49084;48.204;16.202;2022-10-16T11:49:11;14.70;99.90
62991;DHT22;49084;48.204;16.202;2022-10-16T11:51:48;14.70;99.90
62991;DHT22;49084;48.204;16.202;2022-10-16T11:57:29;14.70;99.90
62991;DHT22;49084;48.204;16.202;2022-10-16T12:00:40;14.80;99.90
62991;DHT22;49084;48.204;16.202;2022-10-16T12:03:04;14.90;99.90
62991;DHT22;49084;48.204;16.202;2022-10-16T12:05:51;15.10;99.90
62991;DHT22;49084;48.204;16.202;2022-10-16T12:08:18;15.30;99.90
62991;DHT22;49084;48.204;16.202;2022-10-16T12:10:46;15.40;99.90
62991;DHT22;49084;48.204;16.202;2022-10-16T12:13:37;15.50;99.90
62991;DHT22;49084;48.204;16.202;2022-10-16T12:16:07;15.60;99.90
62991;DHT22;49084;48.204;16.202;2022-10-16T12:18:46;16.00;99.90
62991;DHT22;49084;48.204;16.202;2022-10-16T12:21:13;16.70;99.90
62991;DHT22;49084;48.204;16.202;2022-10-16T12:23:48;16.30;99.90
62991;DHT22;49084;48.204;16.202;2022-10-16T12:26:26;19.20;99.90
62991;DHT22;49084;48.204;16.202;2022-10-16T12:28:53;20.20;99.90
62991;DHT22;49084;48.204;16.202;2022-10-16T12:31:20;21.10;99.90
62991;DHT22;49084;48.204;16.202;2022-10-16T12:33:58;21.40;99.90
62991;DHT22;49084;48.204;16.202;2022-10-16T12:36:30;22.40;99.90
62991;DHT22;49084;48.204;16.202;2022-10-16T12:38:57;23.00;99.90
62991;DHT22;49084;48.204;16.202;2022-10-16T12:41:29;23.50;99.90
62991;DHT22;49084;48.204;16.202;2022-10-16T12:43:56;23.70;99.90
62991;DHT22;49084;48.204;16.202;2022-10-16T12:46:33;24.50;99.90
62991;DHT22;49084;48.204;16.202;2022-10-16T12:54:37;24.20;98.80
62991;DHT22;49084;48.204;16.202;2022-10-16T12:57:28;24.20;99.30
62991;DHT22;49084;48.204;16.202;2022-10-16T13:00:19;24.30;98.90
62991;DHT22;49084;48.204;16.202;2022-10-16T13:14:05;25.50;97.20
62991;DHT22;49084;48.204;16.202;2022-10-16T13:22:03;25.70;96.70
62991;DHT22;49084;48.204;16.202;2022-10-16T13:27:35;24.00;98.80
62991;DHT22;49084;48.204;16.202;2022-10-16T13:30:19;24.00;98.90
62991;DHT22;49084;48.204;16.202;2022-10-16T13:33:10;24.00;99.60
62991;DHT22;49084;48.204;16.202;2022-10-16T13:35:50;23.40;99.90
62991;DHT22;49084;48.204;16.202;2022-10-16T13:38:19;22.60;99.90
62991;DHT22;49084;48.204;16.202;2022-10-16T13:41:03;22.10;99.90
62991;DHT22;49084;48.204;16.202;2022-10-16T13:46:07;21.70;99.90
62991;DHT22;49084;48.204;16.202;2022-10-16T13:48:36;21.60;99.90
62991;DHT22;49084;48.204;16.202;2022-10-16T13:53:32;21.40;99.90
62991;DHT22;49084;48.204;16.202;2022-10-16T13:55:58;21.20;99.90
62991;DHT22;49084;48.204;16.202;2022-10-16T13:58:25;21.00;99.90
62991;DHT22;49084;48.204;16.202;2022-10-16T14:01:11;20.90;99.90
62991;DHT22;49084;48.204;16.202;2022-10-16T14:03:41;20.60;99.90
62991;DHT22;49084;48.204;16.202;2022-10-16T14:06:14;20.30;99.90
62991;DHT22;49084;48.204;16.202;2022-10-16T14:09:23;20.00;99.90
62991;DHT22;49084;48.204;16.202;2022-10-16T14:11:53;19.60;99.90
62991;DHT22;49084;48.204;16.202;2022-10-16T14:14:20;19.40;99.90
62991;DHT22;49084;48.204;16.202;2022-10-16T14:16:45;19.20;99.90
62991;DHT22;49084;48.204;16.202;2022-10-16T14:19:27;19.00;99.90
62991;DHT22;49084;48.204;16.202;2022-10-16T14:21:54;18.90;99.90
62991;DHT22;49084;48.204;16.202;2022-10-16T14:24:47;18.90;99.90
62991;DHT22;49084;48.204;16.202;2022-10-16T14:32:52;18.80;99.90
62991;DHT22;49084;48.204;16.202;2022-10-16T14:37:55;18.50;99.90
62991;DHT22;49084;48.204;16.202;2022-10-16T14:40:24;18.30;99.90
62991;DHT22;49084;48.204;16.202;2022-10-16T14:42:51;18.10;99.90
62991;DHT22;49084;48.204;16.202;2022-10-16T14:45:21;18.00;99.90
62991;DHT22;49084;48.204;16.202;2022-10-16T14:48:00;17.90;99.90
62991;DHT22;49084;48.204;16.202;2022-10-16T14:50:27;17.90;99.90
62991;DHT22;49084;48.204;16.202;2022-10-16T14:52:53;17.80;99.90
62991;DHT22;49084;48.204;16.202;2022-10-16T14:55:19;17.80;99.90
62991;DHT22;49084;48.204;16.202;2022-10-16T14:57:45;17.70;99.90
62991;DHT22;49084;48.204;16.202;2022-10-16T15:00:19;17.60;99.90
62991;DHT22;49084;48.204;16.202;2022-10-16T15:02:46;17.60;99.90
62991;DHT22;49084;48.204;16.202;2022-10-16T15:07:44;17.30;99.90
62991;DHT22;49084;48.204;16.202;2022-10-16T15:10:15;17.20;99.90
62991;DHT22;49084;48.204;16.202;2022-10-16T15:12:40;17.00;99.90
62991;DHT22;49084;48.204;16.202;2022-10-16T15:15:34;16.90;99.90
62991;DHT22;49084;48.204;16.202;2022-10-16T15:18:01;16.80;99.90
62991;DHT22;49084;48.204;16.202;2022-10-16T15:20:32;16.70;99.90
62991;DHT22;49084;48.204;16.202;2022-10-16T15:23:01;16.60;99.90
62991;DHT22;49084;48.204;16.202;2022-10-16T15:27:58;16.30;99.90
62991;DHT22;49084;48.204;16.202;2022-10-16T15:30:24;16.20;99.90
62991;DHT22;49084;48.204;16.202;2022-10-16T15:32:50;16.20;99.90
62991;DHT22;49084;48.204;16.202;2022-10-16T15:35:15;16.10;99.90
62991;DHT22;49084;48.204;16.202;2022-10-16T15:37:41;16.00;99.90
62991;DHT22;49084;48.204;16.202;2022-10-16T15:40:09;15.90;99.90
62991;DHT22;49084;48.204;16.202;2022-10-16T15:42:35;15.90;99.90
62991;DHT22;49084;48.204;16.202;2022-10-16T15:45:01;15.80;99.90
62991;DHT22;49084;48.204;16.202;2022-10-16T15:47:27;15.70;99.90
62991;DHT22;49084;48.204;16.202;2022-10-16T15:49:52;15.70;99.90
62991;DHT22;49084;48.204;16.202;2022-10-16T15:52:18;15.60;99.90
62991;DHT22;49084;48.204;16.202;2022-10-16T15:54:44;15.50;99.90
62991;DHT22;49084;48.204;16.202;2022-10-16T15:57:09;15.40;99.90
62991;DHT22;49084;48.204;16.202;2022-10-16T15:59:35;15.40;99.90
62991;DHT22;49084;48.204;16.202;2022-10-16T16:02:01;15.30;99.90
62991;DHT22;49084;48.204;16.202;2022-10-16T16:04:29;15.20;99.90
62991;DHT22;49084;48.204;16.202;2022-10-16T16:06:54;15.10;99.90
62991;DHT22;49084;48.204;16.202;2022-10-16T16:09:20;15.00;99.90
62991;DHT22;49084;48.204;16.202;2022-10-16T16:11:46;15.00;99.90
62991;DHT22;49084;48.204;16.202;2022-10-16T16:14:15;14.90;99.90
62991;DHT22;49084;48.204;16.202;2022-10-16T16:16:41;14.80;99.90
62991;DHT22;49084;48.204;16.202;2022-10-16T16:19:07;14.70;99.90
62991;DHT22;49084;48.204;16.202;2022-10-16T16:21:34;14.60;99.90
62991;DHT22;49084;48.204;16.202;2022-10-16T16:24:00;14.60;99.90
62991;DHT22;49084;48.204;16.202;2022-10-16T16:26:29;14.50;99.90
62991;DHT22;49084;48.204;16.202;2022-10-16T16:29:02;14.40;99.90
62991;DHT22;49084;48.204;16.202;2022-10-16T16:31:30;14.30;99.90
62991;DHT22;49084;48.204;16.202;2022-10-16T16:33:56;14.30;99.90
62991;DHT22;49084;48.204;16.202;2022-10-16T16:36:23;14.30;99.90
62991;DHT22;49084;48.204;16.202;2022-10-16T16:38:49;14.20;99.90
62991;DHT22;49084;48.204;16.202;2022-10-16T16:41:17;14.10;99.90
62991;DHT22;49084;48.204;16.202;2022-10-16T16:43:44;14.00;99.90
62991;DHT22;49084;48.204;16.202;2022-10-16T16:46:10;13.90;99.90
62991;DHT22;49084;48.204;16.202;2022-10-16T16:48:37;13.90;99.90
62991;DHT22;49084;48.204;16.202;2022-10-16T16:51:08;13.90;99.90
62991;DHT22;49084;48.204;16.202;2022-10-16T16:53:36;13.80;99.90
62991;DHT22;49084;48.204;16.202;2022-10-16T16:56:03;13.80;99.90
62991;DHT22;49084;48.204;16.202;2022-10-16T16:58:30;13.80;99.90
62991;DHT22;49084;48.204;16.202;2022-10-16T17:00:56;13.70;99.90
62991;DHT22;49084;48.204;16.202;2022-10-16T17:03:22;13.60;99.90
62991;DHT22;49084;48.204;16.202;2022-10-16T17:06:03;13.60;99.90
62991;DHT22;49084;48.204;16.202;2022-10-16T17:08:29;13.50;99.90
62991;DHT22;49084;48.204;16.202;2022-10-16T17:10:56;13.50;99.90
62991;DHT22;49084;48.204;16.202;2022-10-16T17:13:28;13.40;99.90
62991;DHT22;49084;48.204;16.202;2022-10-16T17:15:54;13.40;99.90
62991;DHT22;49084;48.204;16.202;2022-10-16T17:18:23;13.40;99.90
62991;DHT22;49084;48.204;16.202;2022-10-16T17:20:49;13.30;99.90
62991;DHT22;49084;48.204;16.202;2022-10-16T17:23:17;13.30;99.90
62991;DHT22;49084;48.204;16.202;2022-10-16T17:25:44;13.30;99.90
62991;DHT22;49084;48.204;16.202;2022-10-16T17:28:11;13.30;99.90
62991;DHT22;49084;48.204;16.202;2022-10-16T17:30:41;13.30;99.90
62991;DHT22;49084;48.204;16.202;2022-10-16T17:33:08;13.30;99.90
62991;DHT22;49084;48.204;16.202;2022-10-16T17:35:43;13.40;99.90
62991;DHT22;49084;48.204;16.202;2022-10-16T17:38:12;13.40;99.90
62991;DHT22;49084;48.204;16.202;2022-10-16T17:40:39;13.30;99.90